sensor_id;sensor_type;location;lat;lon;timestamp;P1;durP1;ratioP1;P2;durP2;ratioP2
45842;SDS011;31563;51.744;8.252;2022-12-11T00:00:05;8.07;;;7.28;;
45842;SDS011;31563;51.744;8.252;2022-12-11T00:02:36;9.38;;;7.85;;
45842;SDS011;31563;51.744;8.252;2022-12-11T00:05:05;7.35;;;6.63;;
45842;SDS011;31563;51.744;8.252;2022-12-11T00:07:34;7.80;;;7.10;;
45842;SDS011;31563;51.744;8.252;2022-12-11T00:10:03;7.80;;;7.10;;
45842;SDS011;31563;51.744;8.252;2022-12-11T00:12:32;8.95;;;7.35;;
45842;SDS011;31563;51.744;8.252;2022-12-11T00:15:00;7.60;;;6.90;;
45842;SDS011;31563;51.744;8.252;2022-12-11T00:17:29;7.50;;;6.80;;
45842;SDS011;31563;51.744;8.252;2022-12-11T00:19:58;8.52;;;6.57;;
45842;SDS011;31563;51.744;8.252;2022-12-11T00:22:28;7.30;;;6.60;;
45842;SDS011;31563;51.744;8.252;2022-12-11T00:24:56;7.90;;;7.13;;
45842;SDS011;31563;51.744;8.252;2022-12-11T00:27:25;7.55;;;6.68;;
45842;SDS011;31563;51.744;8.252;2022-12-11T00:29:53;7.63;;;6.82;;
45842;SDS011;31563;51.744;8.252;2022-12-11T00:32:22;7.28;;;6.57;;
45842;SDS011;31563;51.744;8.252;2022-12-11T00:34:53;7.15;;;6.45;;
45842;SDS011;31563;51.744;8.252;2022-12-11T00:37:23;8.00;;;7.20;;
45842;SDS011;31563;51.744;8.252;2022-12-11T00:39:51;7.18;;;6.47;;
45842;SDS011;31563;51.744;8.252;2022-12-11T00:42:20;7.35;;;6.65;;
45842;SDS011;31563;51.744;8.252;2022-12-11T00:44:48;7.40;;;6.75;;
45842;SDS011;31563;51.744;8.252;2022-12-11T00:47:17;8.93;;;7.55;;
45842;SDS011;31563;51.744;8.252;2022-12-11T00:49:45;7.82;;;7.03;;
45842;SDS011;31563;51.744;8.252;2022-12-11T00:52:15;7.75;;;7.05;;
45842;SDS011;31563;51.744;8.252;2022-12-11T00:54:45;7.57;;;6.88;;
45842;SDS011;31563;51.744;8.252;2022-12-11T00:57:13;7.85;;;6.70;;
45842;SDS011;31563;51.744;8.252;2022-12-11T00:59:42;7.50;;;6.72;;
45842;SDS011;31563;51.744;8.252;2022-12-11T01:02:10;7.65;;;6.85;;
45842;SDS011;31563;51.744;8.252;2022-12-11T01:04:38;8.45;;;7.25;;
45842;SDS011;31563;51.744;8.252;2022-12-11T01:07:07;7.95;;;7.20;;
45842;SDS011;31563;51.744;8.252;2022-12-11T01:09:35;8.40;;;7.60;;
45842;SDS011;31563;51.744;8.252;2022-12-11T01:12:23;7.75;;;7.00;;
45842;SDS011;31563;51.744;8.252;2022-12-11T01:14:53;8.27;;;7.05;;
45842;SDS011;31563;51.744;8.252;2022-12-11T01:17:22;7.38;;;6.68;;
45842;SDS011;31563;51.744;8.252;2022-12-11T01:19:52;7.63;;;6.88;;
45842;SDS011;31563;51.744;8.252;2022-12-11T01:22:20;8.02;;;7.22;;
45842;SDS011;31563;51.744;8.252;2022-12-11T01:24:49;7.88;;;7.18;;
45842;SDS011;31563;51.744;8.252;2022-12-11T01:27:17;7.35;;;6.60;;
45842;SDS011;31563;51.744;8.252;2022-12-11T01:29:47;7.30;;;6.60;;
45842;SDS011;31563;51.744;8.252;2022-12-11T01:32:18;6.80;;;6.20;;
45842;SDS011;31563;51.744;8.252;2022-12-11T01:35:03;6.68;;;6.07;;
45842;SDS011;31563;51.744;8.252;2022-12-11T01:37:32;7.28;;;6.57;;
45842;SDS011;31563;51.744;8.252;2022-12-11T01:40:15;7.55;;;6.75;;
45842;SDS011;31563;51.744;8.252;2022-12-11T01:42:45;8.93;;;8.02;;
45842;SDS011;31563;51.744;8.252;2022-12-11T01:45:22;9.27;;;8.32;;
45842;SDS011;31563;51.744;8.252;2022-12-11T01:47:55;7.90;;;7.10;;
45842;SDS011;31563;51.744;8.252;2022-12-11T01:50:27;9.50;;;7.85;;
45842;SDS011;31563;51.744;8.252;2022-12-11T01:52:56;8.33;;;7.50;;
45842;SDS011;31563;51.744;8.252;2022-12-11T01:55:25;8.18;;;7.38;;
45842;SDS011;31563;51.744;8.252;2022-12-11T01:57:54;8.57;;;7.78;;
45842;SDS011;31563;51.744;8.252;2022-12-11T02:00:24;9.27;;;8.38;;
45842;SDS011;31563;51.744;8.252;2022-12-11T02:02:52;8.60;;;7.80;;
45842;SDS011;31563;51.744;8.252;2022-12-11T02:05:20;9.30;;;8.30;;
45842;SDS011;31563;51.744;8.252;2022-12-11T02:07:50;9.25;;;8.30;;
45842;SDS011;31563;51.744;8.252;2022-12-11T02:10:22;9.15;;;8.23;;
45842;SDS011;31563;51.744;8.252;2022-12-11T02:12:59;9.02;;;8.15;;
45842;SDS011;31563;51.744;8.252;2022-12-11T02:15:36;8.98;;;7.93;;
45842;SDS011;31563;51.744;8.252;2022-12-11T02:18:11;9.80;;;8.48;;
45842;SDS011;31563;51.744;8.252;2022-12-11T02:20:47;8.70;;;7.80;;
45842;SDS011;31563;51.744;8.252;2022-12-11T02:26:30;8.73;;;7.78;;
45842;SDS011;31563;51.744;8.252;2022-12-11T02:29:11;8.70;;;7.80;;
45842;SDS011;31563;51.744;8.252;2022-12-11T02:31:45;8.32;;;7.53;;
45842;SDS011;31563;51.744;8.252;2022-12-11T02:34:19;9.48;;;8.07;;
45842;SDS011;31563;51.744;8.252;2022-12-11T02:36:50;9.30;;;8.35;;
45842;SDS011;31563;51.744;8.252;2022-12-11T02:39:22;7.97;;;7.18;;
45842;SDS011;31563;51.744;8.252;2022-12-11T02:41:52;9.00;;;8.10;;
45842;SDS011;31563;51.744;8.252;2022-12-11T02:46:53;9.05;;;8.10;;
45842;SDS011;31563;51.744;8.252;2022-12-11T02:49:22;9.88;;;8.48;;
45842;SDS011;31563;51.744;8.252;2022-12-11T02:51:53;9.10;;;8.15;;
45842;SDS011;31563;51.744;8.252;2022-12-11T02:56:53;9.00;;;7.70;;
45842;SDS011;31563;51.744;8.252;2022-12-11T02:59:28;8.90;;;8.00;;
45842;SDS011;31563;51.744;8.252;2022-12-11T03:02:02;9.80;;;8.38;;
45842;SDS011;31563;51.744;8.252;2022-12-11T03:04:31;8.88;;;7.97;;
45842;SDS011;31563;51.744;8.252;2022-12-11T03:07:02;8.73;;;7.78;;
45842;SDS011;31563;51.744;8.252;2022-12-11T03:09:37;9.38;;;8.38;;
45842;SDS011;31563;51.744;8.252;2022-12-11T03:12:06;9.05;;;8.15;;
45842;SDS011;31563;51.744;8.252;2022-12-11T03:14:39;9.38;;;8.38;;
45842;SDS011;31563;51.744;8.252;2022-12-11T03:17:11;11.63;;;8.73;;
45842;SDS011;31563;51.744;8.252;2022-12-11T03:19:44;8.93;;;8.00;;
45842;SDS011;31563;51.744;8.252;2022-12-11T03:22:18;11.25;;;8.73;;
45842;SDS011;31563;51.744;8.252;2022-12-11T03:24:51;9.93;;;8.80;;
45842;SDS011;31563;51.744;8.252;2022-12-11T03:27:26;9.73;;;8.73;;
45842;SDS011;31563;51.744;8.252;2022-12-11T03:29:59;9.27;;;8.32;;
45842;SDS011;31563;51.744;8.252;2022-12-11T03:32:33;9.93;;;8.52;;
45842;SDS011;31563;51.744;8.252;2022-12-11T03:35:05;8.93;;;8.02;;
45842;SDS011;31563;51.744;8.252;2022-12-11T03:37:39;9.07;;;8.18;;
45842;SDS011;31563;51.744;8.252;2022-12-11T03:40:12;10.23;;;8.45;;
45842;SDS011;31563;51.744;8.252;2022-12-11T03:42:43;10.00;;;8.35;;
45842;SDS011;31563;51.744;8.252;2022-12-11T03:45:16;9.10;;;7.93;;
45842;SDS011;31563;51.744;8.252;2022-12-11T03:47:47;9.90;;;8.70;;
45842;SDS011;31563;51.744;8.252;2022-12-11T03:52:46;10.35;;;8.57;;
45842;SDS011;31563;51.744;8.252;2022-12-11T03:55:15;10.50;;;9.00;;
45842;SDS011;31563;51.744;8.252;2022-12-11T03:57:45;9.40;;;8.07;;
45842;SDS011;31563;51.744;8.252;2022-12-11T04:00:17;10.57;;;8.48;;
45842;SDS011;31563;51.744;8.252;2022-12-11T04:02:47;10.25;;;8.77;;
45842;SDS011;31563;51.744;8.252;2022-12-11T04:05:39;11.02;;;9.13;;
45842;SDS011;31563;51.744;8.252;2022-12-11T04:08:08;10.88;;;8.88;;
45842;SDS011;31563;51.744;8.252;2022-12-11T04:10:36;10.15;;;9.15;;
45842;SDS011;31563;51.744;8.252;2022-12-11T04:13:05;9.40;;;8.40;;
45842;SDS011;31563;51.744;8.252;2022-12-11T04:15:35;9.35;;;8.23;;
45842;SDS011;31563;51.744;8.252;2022-12-11T04:18:03;9.85;;;8.65;;
45842;SDS011;31563;51.744;8.252;2022-12-11T04:20:51;9.43;;;8.30;;
45842;SDS011;31563;51.744;8.252;2022-12-11T04:23:37;9.20;;;8.07;;
45842;SDS011;31563;51.744;8.252;2022-12-11T04:26:23;9.95;;;8.48;;
45842;SDS011;31563;51.744;8.252;2022-12-11T04:28:51;9.90;;;8.43;;
45842;SDS011;31563;51.744;8.252;2022-12-11T04:31:21;10.07;;;8.95;;
45842;SDS011;31563;51.744;8.252;2022-12-11T04:33:50;11.05;;;8.45;;
45842;SDS011;31563;51.744;8.252;2022-12-11T04:36:18;11.80;;;8.88;;
45842;SDS011;31563;51.744;8.252;2022-12-11T04:38:47;10.23;;;8.82;;
45842;SDS011;31563;51.744;8.252;2022-12-11T04:41:15;10.13;;;8.45;;
45842;SDS011;31563;51.744;8.252;2022-12-11T04:43:44;10.00;;;9.00;;
45842;SDS011;31563;51.744;8.252;2022-12-11T04:46:13;11.50;;;9.35;;
45842;SDS011;31563;51.744;8.252;2022-12-11T04:48:44;10.85;;;8.55;;
45842;SDS011;31563;51.744;8.252;2022-12-11T04:51:19;10.38;;;9.10;;
45842;SDS011;31563;51.744;8.252;2022-12-11T04:53:47;11.43;;;8.98;;
45842;SDS011;31563;51.744;8.252;2022-12-11T04:56:16;11.25;;;9.13;;
45842;SDS011;31563;51.744;8.252;2022-12-11T04:58:44;10.65;;;8.25;;
45842;SDS011;31563;51.744;8.252;2022-12-11T05:01:14;9.02;;;7.70;;
45842;SDS011;31563;51.744;8.252;2022-12-11T05:03:45;10.68;;;8.73;;
45842;SDS011;31563;51.744;8.252;2022-12-11T05:08:41;9.70;;;8.05;;
45842;SDS011;31563;51.744;8.252;2022-12-11T05:11:11;9.65;;;8.20;;
45842;SDS011;31563;51.744;8.252;2022-12-11T05:16:10;10.55;;;8.50;;
45842;SDS011;31563;51.744;8.252;2022-12-11T05:18:39;9.27;;;7.72;;
45842;SDS011;31563;51.744;8.252;2022-12-11T05:21:10;8.85;;;7.95;;
45842;SDS011;31563;51.744;8.252;2022-12-11T05:23:39;10.27;;;8.52;;
45842;SDS011;31563;51.744;8.252;2022-12-11T05:26:10;10.68;;;7.80;;
45842;SDS011;31563;51.744;8.252;2022-12-11T05:28:40;8.70;;;7.68;;
45842;SDS011;31563;51.744;8.252;2022-12-11T05:31:10;10.25;;;8.30;;
45842;SDS011;31563;51.744;8.252;2022-12-11T05:33:40;11.30;;;8.25;;
45842;SDS011;31563;51.744;8.252;2022-12-11T05:36:10;10.90;;;8.68;;
45842;SDS011;31563;51.744;8.252;2022-12-11T05:38:42;10.05;;;8.38;;
45842;SDS011;31563;51.744;8.252;2022-12-11T05:41:11;10.57;;;8.70;;
45842;SDS011;31563;51.744;8.252;2022-12-11T05:43:42;9.82;;;8.23;;
45842;SDS011;31563;51.744;8.252;2022-12-11T05:46:11;9.15;;;7.57;;
45842;SDS011;31563;51.744;8.252;2022-12-11T05:48:40;10.52;;;8.38;;
45842;SDS011;31563;51.744;8.252;2022-12-11T05:51:10;10.77;;;8.52;;
45842;SDS011;31563;51.744;8.252;2022-12-11T05:53:39;9.48;;;8.05;;
45842;SDS011;31563;51.744;8.252;2022-12-11T05:56:09;9.77;;;7.83;;
45842;SDS011;31563;51.744;8.252;2022-12-11T05:58:39;10.05;;;8.07;;
45842;SDS011;31563;51.744;8.252;2022-12-11T06:01:08;10.15;;;7.93;;
45842;SDS011;31563;51.744;8.252;2022-12-11T06:03:39;10.05;;;8.43;;
45842;SDS011;31563;51.744;8.252;2022-12-11T06:06:07;11.10;;;9.02;;
45842;SDS011;31563;51.744;8.252;2022-12-11T06:08:37;10.15;;;8.23;;
45842;SDS011;31563;51.744;8.252;2022-12-11T06:11:06;10.25;;;7.63;;
45842;SDS011;31563;51.744;8.252;2022-12-11T06:13:34;10.98;;;8.80;;
45842;SDS011;31563;51.744;8.252;2022-12-11T06:16:03;11.23;;;8.25;;
45842;SDS011;31563;51.744;8.252;2022-12-11T06:18:34;10.13;;;8.20;;
45842;SDS011;31563;51.744;8.252;2022-12-11T06:21:09;13.35;;;9.05;;
45842;SDS011;31563;51.744;8.252;2022-12-11T06:23:45;10.77;;;8.85;;
45842;SDS011;31563;51.744;8.252;2022-12-11T06:26:14;9.20;;;7.78;;
45842;SDS011;31563;51.744;8.252;2022-12-11T06:28:44;10.60;;;8.23;;
45842;SDS011;31563;51.744;8.252;2022-12-11T06:31:13;9.10;;;8.05;;
45842;SDS011;31563;51.744;8.252;2022-12-11T06:33:41;9.40;;;8.10;;
45842;SDS011;31563;51.744;8.252;2022-12-11T06:36:11;9.48;;;7.55;;
45842;SDS011;31563;51.744;8.252;2022-12-11T06:38:41;10.25;;;8.32;;
45842;SDS011;31563;51.744;8.252;2022-12-11T06:41:11;9.50;;;8.20;;
45842;SDS011;31563;51.744;8.252;2022-12-11T06:46:09;10.50;;;8.23;;
45842;SDS011;31563;51.744;8.252;2022-12-11T06:48:39;10.88;;;9.15;;
45842;SDS011;31563;51.744;8.252;2022-12-11T06:51:09;9.57;;;8.23;;
45842;SDS011;31563;51.744;8.252;2022-12-11T06:53:38;11.45;;;9.02;;
45842;SDS011;31563;51.744;8.252;2022-12-11T06:56:08;9.85;;;8.55;;
45842;SDS011;31563;51.744;8.252;2022-12-11T07:01:12;10.55;;;8.55;;
45842;SDS011;31563;51.744;8.252;2022-12-11T07:03:42;9.40;;;7.60;;
45842;SDS011;31563;51.744;8.252;2022-12-11T07:06:12;9.85;;;7.97;;
45842;SDS011;31563;51.744;8.252;2022-12-11T07:08:40;11.20;;;8.60;;
45842;SDS011;31563;51.744;8.252;2022-12-11T07:11:10;31.75;;;19.70;;
45842;SDS011;31563;51.744;8.252;2022-12-11T07:13:40;32.90;;;21.60;;
45842;SDS011;31563;51.744;8.252;2022-12-11T07:16:09;32.03;;;20.20;;
45842;SDS011;31563;51.744;8.252;2022-12-11T07:18:39;29.35;;;19.45;;
45842;SDS011;31563;51.744;8.252;2022-12-11T07:21:09;30.83;;;19.60;;
45842;SDS011;31563;51.744;8.252;2022-12-11T07:23:39;27.65;;;17.77;;
45842;SDS011;31563;51.744;8.252;2022-12-11T07:26:09;28.77;;;18.75;;
45842;SDS011;31563;51.744;8.252;2022-12-11T07:28:38;26.42;;;18.15;;
45842;SDS011;31563;51.744;8.252;2022-12-11T07:31:08;32.63;;;20.50;;
45842;SDS011;31563;51.744;8.252;2022-12-11T07:33:38;36.17;;;24.05;;
45842;SDS011;31563;51.744;8.252;2022-12-11T07:36:07;40.60;;;23.80;;
45842;SDS011;31563;51.744;8.252;2022-12-11T07:38:37;38.75;;;23.60;;
45842;SDS011;31563;51.744;8.252;2022-12-11T07:41:07;37.70;;;24.33;;
45842;SDS011;31563;51.744;8.252;2022-12-11T07:43:37;36.28;;;24.20;;
45842;SDS011;31563;51.744;8.252;2022-12-11T07:46:06;35.13;;;22.10;;
45842;SDS011;31563;51.744;8.252;2022-12-11T07:48:39;37.25;;;23.70;;
45842;SDS011;31563;51.744;8.252;2022-12-11T07:51:08;40.90;;;24.90;;
45842;SDS011;31563;51.744;8.252;2022-12-11T07:53:37;39.47;;;23.55;;
45842;SDS011;31563;51.744;8.252;2022-12-11T07:56:06;36.63;;;23.27;;
45842;SDS011;31563;51.744;8.252;2022-12-11T07:58:35;34.58;;;21.50;;
45842;SDS011;31563;51.744;8.252;2022-12-11T08:01:04;35.17;;;21.93;;
45842;SDS011;31563;51.744;8.252;2022-12-11T08:03:34;34.67;;;21.17;;
45842;SDS011;31563;51.744;8.252;2022-12-11T08:06:02;31.90;;;20.02;;
45842;SDS011;31563;51.744;8.252;2022-12-11T08:08:32;30.93;;;19.53;;
45842;SDS011;31563;51.744;8.252;2022-12-11T08:11:00;33.45;;;19.95;;
45842;SDS011;31563;51.744;8.252;2022-12-11T08:13:28;31.90;;;19.30;;
45842;SDS011;31563;51.744;8.252;2022-12-11T08:15:57;28.40;;;17.70;;
45842;SDS011;31563;51.744;8.252;2022-12-11T08:18:25;28.20;;;17.90;;
45842;SDS011;31563;51.744;8.252;2022-12-11T08:20:55;25.85;;;17.77;;
45842;SDS011;31563;51.744;8.252;2022-12-11T08:23:24;26.83;;;17.92;;
45842;SDS011;31563;51.744;8.252;2022-12-11T08:25:53;27.40;;;17.45;;
45842;SDS011;31563;51.744;8.252;2022-12-11T08:28:22;26.55;;;16.65;;
45842;SDS011;31563;51.744;8.252;2022-12-11T08:33:20;23.95;;;15.65;;
45842;SDS011;31563;51.744;8.252;2022-12-11T08:35:49;23.42;;;16.08;;
45842;SDS011;31563;51.744;8.252;2022-12-11T08:38:19;23.48;;;15.32;;
45842;SDS011;31563;51.744;8.252;2022-12-11T08:40:51;25.77;;;15.38;;
45842;SDS011;31563;51.744;8.252;2022-12-11T08:43:20;23.35;;;14.23;;
45842;SDS011;31563;51.744;8.252;2022-12-11T08:45:48;20.95;;;15.20;;
45842;SDS011;31563;51.744;8.252;2022-12-11T08:48:17;21.42;;;14.68;;
45842;SDS011;31563;51.744;8.252;2022-12-11T08:50:45;19.40;;;13.73;;
45842;SDS011;31563;51.744;8.252;2022-12-11T08:53:14;22.02;;;14.10;;
45842;SDS011;31563;51.744;8.252;2022-12-11T08:55:45;19.60;;;13.37;;
45842;SDS011;31563;51.744;8.252;2022-12-11T08:58:13;20.42;;;13.85;;
45842;SDS011;31563;51.744;8.252;2022-12-11T09:00:42;20.38;;;13.60;;
45842;SDS011;31563;51.744;8.252;2022-12-11T09:03:10;22.15;;;13.52;;
45842;SDS011;31563;51.744;8.252;2022-12-11T09:05:39;18.02;;;13.13;;
45842;SDS011;31563;51.744;8.252;2022-12-11T09:08:08;18.33;;;13.38;;
45842;SDS011;31563;51.744;8.252;2022-12-11T09:10:37;17.53;;;12.40;;
45842;SDS011;31563;51.744;8.252;2022-12-11T09:13:07;17.13;;;12.18;;
45842;SDS011;31563;51.744;8.252;2022-12-11T09:15:38;17.25;;;11.88;;
45842;SDS011;31563;51.744;8.252;2022-12-11T09:18:07;16.00;;;11.98;;
45842;SDS011;31563;51.744;8.252;2022-12-11T09:20:36;16.92;;;11.60;;
45842;SDS011;31563;51.744;8.252;2022-12-11T09:23:05;16.20;;;11.38;;
45842;SDS011;31563;51.744;8.252;2022-12-11T09:25:38;18.58;;;12.95;;
45842;SDS011;31563;51.744;8.252;2022-12-11T09:28:08;17.63;;;11.98;;
45842;SDS011;31563;51.744;8.252;2022-12-11T09:30:36;22.05;;;13.60;;
45842;SDS011;31563;51.744;8.252;2022-12-11T09:33:05;18.88;;;14.40;;
45842;SDS011;31563;51.744;8.252;2022-12-11T09:35:34;20.30;;;13.95;;
45842;SDS011;31563;51.744;8.252;2022-12-11T09:38:03;21.30;;;14.27;;
45842;SDS011;31563;51.744;8.252;2022-12-11T09:40:31;20.75;;;13.73;;
45842;SDS011;31563;51.744;8.252;2022-12-11T09:43:02;20.90;;;14.63;;
45842;SDS011;31563;51.744;8.252;2022-12-11T09:45:40;20.70;;;13.32;;
45842;SDS011;31563;51.744;8.252;2022-12-11T09:48:09;17.48;;;12.95;;
45842;SDS011;31563;51.744;8.252;2022-12-11T09:50:40;17.63;;;13.40;;
45842;SDS011;31563;51.744;8.252;2022-12-11T09:53:10;17.90;;;13.70;;
45842;SDS011;31563;51.744;8.252;2022-12-11T09:55:44;16.85;;;12.82;;
45842;SDS011;31563;51.744;8.252;2022-12-11T09:58:19;17.13;;;12.88;;
45842;SDS011;31563;51.744;8.252;2022-12-11T10:00:55;16.60;;;12.70;;
45842;SDS011;31563;51.744;8.252;2022-12-11T10:03:33;17.60;;;12.65;;
45842;SDS011;31563;51.744;8.252;2022-12-11T10:06:14;18.95;;;13.02;;
45842;SDS011;31563;51.744;8.252;2022-12-11T10:08:50;18.75;;;13.05;;
45842;SDS011;31563;51.744;8.252;2022-12-11T10:11:39;15.75;;;12.10;;
45842;SDS011;31563;51.744;8.252;2022-12-11T10:14:25;15.57;;;11.90;;
45842;SDS011;31563;51.744;8.252;2022-12-11T10:17:05;18.00;;;12.80;;
45842;SDS011;31563;51.744;8.252;2022-12-11T10:19:39;15.70;;;11.10;;
45842;SDS011;31563;51.744;8.252;2022-12-11T10:24:41;15.73;;;11.80;;
45842;SDS011;31563;51.744;8.252;2022-12-11T10:27:32;14.50;;;11.18;;
45842;SDS011;31563;51.744;8.252;2022-12-11T10:30:07;16.65;;;11.32;;
45842;SDS011;31563;51.744;8.252;2022-12-11T10:32:48;16.52;;;11.55;;
45842;SDS011;31563;51.744;8.252;2022-12-11T10:35:19;16.13;;;11.60;;
45842;SDS011;31563;51.744;8.252;2022-12-11T10:38:00;14.70;;;10.65;;
45842;SDS011;31563;51.744;8.252;2022-12-11T10:40:38;15.75;;;11.18;;
45842;SDS011;31563;51.744;8.252;2022-12-11T10:43:09;15.52;;;11.43;;
45842;SDS011;31563;51.744;8.252;2022-12-11T10:45:38;16.52;;;11.68;;
45842;SDS011;31563;51.744;8.252;2022-12-11T10:48:09;15.35;;;11.00;;
45842;SDS011;31563;51.744;8.252;2022-12-11T10:50:38;13.35;;;9.85;;
45842;SDS011;31563;51.744;8.252;2022-12-11T10:53:16;13.57;;;10.25;;
45842;SDS011;31563;51.744;8.252;2022-12-11T10:55:47;12.93;;;9.80;;
45842;SDS011;31563;51.744;8.252;2022-12-11T10:58:17;14.60;;;10.67;;
45842;SDS011;31563;51.744;8.252;2022-12-11T11:00:48;12.10;;;10.15;;
45842;SDS011;31563;51.744;8.252;2022-12-11T11:03:32;14.45;;;10.82;;
45842;SDS011;31563;51.744;8.252;2022-12-11T11:06:05;13.75;;;10.35;;
45842;SDS011;31563;51.744;8.252;2022-12-11T11:08:42;14.35;;;10.25;;
45842;SDS011;31563;51.744;8.252;2022-12-11T11:14:03;13.50;;;10.50;;
45842;SDS011;31563;51.744;8.252;2022-12-11T11:16:34;14.32;;;10.07;;
45842;SDS011;31563;51.744;8.252;2022-12-11T11:19:05;15.07;;;10.48;;
45842;SDS011;31563;51.744;8.252;2022-12-11T11:21:34;12.77;;;9.82;;
45842;SDS011;31563;51.744;8.252;2022-12-11T11:24:02;13.68;;;9.38;;
45842;SDS011;31563;51.744;8.252;2022-12-11T11:26:31;12.57;;;10.40;;
45842;SDS011;31563;51.744;8.252;2022-12-11T11:29:22;12.13;;;9.15;;
45842;SDS011;31563;51.744;8.252;2022-12-11T11:31:55;11.55;;;9.80;;
45842;SDS011;31563;51.744;8.252;2022-12-11T11:34:25;11.93;;;9.23;;
45842;SDS011;31563;51.744;8.252;2022-12-11T11:36:56;13.57;;;9.43;;
45842;SDS011;31563;51.744;8.252;2022-12-11T11:39:31;12.52;;;9.50;;
45842;SDS011;31563;51.744;8.252;2022-12-11T11:42:05;12.65;;;9.35;;
45842;SDS011;31563;51.744;8.252;2022-12-11T11:44:40;12.75;;;9.80;;
45842;SDS011;31563;51.744;8.252;2022-12-11T11:47:13;12.70;;;9.85;;
45842;SDS011;31563;51.744;8.252;2022-12-11T11:49:48;10.68;;;9.30;;
45842;SDS011;31563;51.744;8.252;2022-12-11T11:52:23;12.25;;;9.65;;
45842;SDS011;31563;51.744;8.252;2022-12-11T11:54:59;10.13;;;8.18;;
45842;SDS011;31563;51.744;8.252;2022-12-11T11:57:36;12.82;;;9.73;;
45842;SDS011;31563;51.744;8.252;2022-12-11T12:02:46;10.57;;;8.73;;
45842;SDS011;31563;51.744;8.252;2022-12-11T12:05:19;11.80;;;9.32;;
45842;SDS011;31563;51.744;8.252;2022-12-11T12:08:03;12.02;;;9.35;;
45842;SDS011;31563;51.744;8.252;2022-12-11T12:10:39;11.63;;;8.75;;
45842;SDS011;31563;51.744;8.252;2022-12-11T12:13:14;12.32;;;8.98;;
45842;SDS011;31563;51.744;8.252;2022-12-11T12:16:14;11.85;;;9.48;;
45842;SDS011;31563;51.744;8.252;2022-12-11T12:19:11;12.27;;;9.13;;
45842;SDS011;31563;51.744;8.252;2022-12-11T12:21:48;11.45;;;8.85;;
45842;SDS011;31563;51.744;8.252;2022-12-11T12:24:23;11.85;;;8.45;;
45842;SDS011;31563;51.744;8.252;2022-12-11T12:27:09;11.98;;;9.23;;
45842;SDS011;31563;51.744;8.252;2022-12-11T12:30:06;11.30;;;9.05;;
45842;SDS011;31563;51.744;8.252;2022-12-11T12:32:44;10.70;;;8.88;;
45842;SDS011;31563;51.744;8.252;2022-12-11T12:35:29;11.80;;;8.57;;
45842;SDS011;31563;51.744;8.252;2022-12-11T12:38:09;10.95;;;8.90;;
45842;SDS011;31563;51.744;8.252;2022-12-11T12:40:44;11.80;;;9.20;;
45842;SDS011;31563;51.744;8.252;2022-12-11T12:43:27;11.05;;;8.88;;
45842;SDS011;31563;51.744;8.252;2022-12-11T12:46:13;11.27;;;9.02;;
45842;SDS011;31563;51.744;8.252;2022-12-11T12:48:50;11.73;;;9.27;;
45842;SDS011;31563;51.744;8.252;2022-12-11T12:51:21;11.63;;;8.85;;
45842;SDS011;31563;51.744;8.252;2022-12-11T12:53:53;11.30;;;8.65;;
45842;SDS011;31563;51.744;8.252;2022-12-11T12:56:24;11.20;;;8.57;;
45842;SDS011;31563;51.744;8.252;2022-12-11T13:01:22;11.65;;;9.05;;
45842;SDS011;31563;51.744;8.252;2022-12-11T13:03:54;9.93;;;8.27;;
45842;SDS011;31563;51.744;8.252;2022-12-11T13:06:28;10.73;;;8.82;;
45842;SDS011;31563;51.744;8.252;2022-12-11T13:09:12;11.00;;;8.43;;
45842;SDS011;31563;51.744;8.252;2022-12-11T13:11:44;11.82;;;8.65;;
45842;SDS011;31563;51.744;8.252;2022-12-11T13:14:22;10.57;;;8.15;;
45842;SDS011;31563;51.744;8.252;2022-12-11T13:17:05;8.60;;;6.57;;
45842;SDS011;31563;51.744;8.252;2022-12-11T13:19:49;9.52;;;7.70;;
45842;SDS011;31563;51.744;8.252;2022-12-11T13:22:30;10.45;;;8.10;;
45842;SDS011;31563;51.744;8.252;2022-12-11T13:25:01;11.00;;;9.25;;
45842;SDS011;31563;51.744;8.252;2022-12-11T13:27:48;11.63;;;9.07;;
45842;SDS011;31563;51.744;8.252;2022-12-11T13:30:21;10.13;;;7.95;;
45842;SDS011;31563;51.744;8.252;2022-12-11T13:32:55;9.77;;;8.32;;
45842;SDS011;31563;51.744;8.252;2022-12-11T13:35:29;10.27;;;8.20;;
45842;SDS011;31563;51.744;8.252;2022-12-11T13:40:34;10.27;;;8.43;;
45842;SDS011;31563;51.744;8.252;2022-12-11T13:43:07;10.57;;;8.50;;
45842;SDS011;31563;51.744;8.252;2022-12-11T13:45:45;10.82;;;8.32;;
45842;SDS011;31563;51.744;8.252;2022-12-11T13:48:21;10.18;;;8.07;;
45842;SDS011;31563;51.744;8.252;2022-12-11T13:50:54;10.45;;;8.23;;
45842;SDS011;31563;51.744;8.252;2022-12-11T13:53:24;9.50;;;7.57;;
45842;SDS011;31563;51.744;8.252;2022-12-11T13:55:58;11.85;;;8.95;;
45842;SDS011;31563;51.744;8.252;2022-12-11T13:58:28;9.25;;;7.57;;
45842;SDS011;31563;51.744;8.252;2022-12-11T14:01:03;9.63;;;7.80;;
45842;SDS011;31563;51.744;8.252;2022-12-11T14:03:37;11.95;;;8.77;;
45842;SDS011;31563;51.744;8.252;2022-12-11T14:06:08;9.60;;;8.15;;
45842;SDS011;31563;51.744;8.252;2022-12-11T14:08:44;9.95;;;8.10;;
45842;SDS011;31563;51.744;8.252;2022-12-11T14:11:20;10.13;;;8.48;;
45842;SDS011;31563;51.744;8.252;2022-12-11T14:13:53;10.88;;;8.38;;
45842;SDS011;31563;51.744;8.252;2022-12-11T14:16:24;11.48;;;8.55;;
45842;SDS011;31563;51.744;8.252;2022-12-11T14:18:54;12.32;;;8.50;;
45842;SDS011;31563;51.744;8.252;2022-12-11T14:21:27;10.25;;;8.35;;
45842;SDS011;31563;51.744;8.252;2022-12-11T14:23:59;10.63;;;8.27;;
45842;SDS011;31563;51.744;8.252;2022-12-11T14:26:32;10.77;;;8.57;;
45842;SDS011;31563;51.744;8.252;2022-12-11T14:29:04;9.45;;;7.65;;
45842;SDS011;31563;51.744;8.252;2022-12-11T14:31:32;11.25;;;8.70;;
45842;SDS011;31563;51.744;8.252;2022-12-11T14:34:04;10.88;;;8.60;;
45842;SDS011;31563;51.744;8.252;2022-12-11T14:36:39;9.48;;;7.60;;
45842;SDS011;31563;51.744;8.252;2022-12-11T14:39:10;10.55;;;8.20;;
45842;SDS011;31563;51.744;8.252;2022-12-11T14:41:44;9.20;;;7.72;;
45842;SDS011;31563;51.744;8.252;2022-12-11T14:44:16;8.82;;;7.75;;
45842;SDS011;31563;51.744;8.252;2022-12-11T14:46:49;11.32;;;9.02;;
45842;SDS011;31563;51.744;8.252;2022-12-11T14:49:21;10.32;;;8.38;;
45842;SDS011;31563;51.744;8.252;2022-12-11T14:51:54;8.73;;;7.43;;
45842;SDS011;31563;51.744;8.252;2022-12-11T14:54:26;9.60;;;8.57;;
45842;SDS011;31563;51.744;8.252;2022-12-11T14:57:00;9.38;;;8.13;;
45842;SDS011;31563;51.744;8.252;2022-12-11T14:59:33;10.82;;;8.70;;
45842;SDS011;31563;51.744;8.252;2022-12-11T15:02:19;9.68;;;7.95;;
45842;SDS011;31563;51.744;8.252;2022-12-11T15:07:53;9.98;;;8.00;;
45842;SDS011;31563;51.744;8.252;2022-12-11T15:10:26;10.30;;;8.35;;
45842;SDS011;31563;51.744;8.252;2022-12-11T15:13:00;10.85;;;9.00;;
45842;SDS011;31563;51.744;8.252;2022-12-11T15:15:29;10.20;;;8.50;;
45842;SDS011;31563;51.744;8.252;2022-12-11T15:18:05;10.55;;;8.88;;
45842;SDS011;31563;51.744;8.252;2022-12-11T15:20:49;9.15;;;7.97;;
45842;SDS011;31563;51.744;8.252;2022-12-11T15:23:19;10.98;;;8.77;;
45842;SDS011;31563;51.744;8.252;2022-12-11T15:25:51;10.07;;;8.32;;
45842;SDS011;31563;51.744;8.252;2022-12-11T15:28:26;10.65;;;8.40;;
45842;SDS011;31563;51.744;8.252;2022-12-11T15:30:56;10.45;;;8.20;;
45842;SDS011;31563;51.744;8.252;2022-12-11T15:33:26;10.02;;;8.20;;
45842;SDS011;31563;51.744;8.252;2022-12-11T15:36:00;8.82;;;7.38;;
45842;SDS011;31563;51.744;8.252;2022-12-11T15:38:33;9.55;;;8.00;;
45842;SDS011;31563;51.744;8.252;2022-12-11T15:41:05;10.20;;;8.07;;
45842;SDS011;31563;51.744;8.252;2022-12-11T15:43:39;9.73;;;8.20;;